Terminal Aerodrome Forecast
Issued by NWS

Home | Current Version | Previous Version | Text Only | Print | Product List | Glossary On
Versions: 1 2 3 4 5 6 7 8 9 10 11 12 13 14
181
FTUS46 KLOX 232339
TAFBUR
TAF
KBUR 232339Z 2400/2424 15008KT P6SM SKC WS010/06030KT
     FM240300 35005KT P6SM SKC WS010/06030KT
     FM240800 01011KT P6SM SKC WS010/06030KT
     FM242000 06007KT P6SM SKC=

USA.gov is the U.S. government's official web portal to all federal, state and local government web resources and services.